sensor_id;sensor_type;location;lat;lon;timestamp;temperature;humidity
69054;DHT22;56125;52.242;4.756;2023-03-15T00:00:39;18.70;40.50
69054;DHT22;56125;52.242;4.756;2023-03-15T00:05:46;18.70;40.40
69054;DHT22;56125;52.242;4.756;2023-03-15T00:10:47;18.70;40.40
69054;DHT22;56125;52.242;4.756;2023-03-15T00:15:50;18.70;40.40
69054;DHT22;56125;52.242;4.756;2023-03-15T00:20:52;18.70;40.30
69054;DHT22;56125;52.242;4.756;2023-03-15T00:25:53;18.70;40.50
69054;DHT22;56125;52.242;4.756;2023-03-15T00:31:15;18.70;40.30
69054;DHT22;56125;52.242;4.756;2023-03-15T00:36:16;18.70;40.50
69054;DHT22;56125;52.242;4.756;2023-03-15T00:41:18;18.20;40.20
69054;DHT22;56125;52.242;4.756;2023-03-15T00:46:19;18.70;40.50
69054;DHT22;56125;52.242;4.756;2023-03-15T00:51:22;18.60;40.30
69054;DHT22;56125;52.242;4.756;2023-03-15T00:56:25;18.60;40.50
69054;DHT22;56125;52.242;4.756;2023-03-15T01:01:28;18.60;40.40
69054;DHT22;56125;52.242;4.756;2023-03-15T01:06:29;18.60;40.60
69054;DHT22;56125;52.242;4.756;2023-03-15T01:11:30;18.20;40.30
69054;DHT22;56125;52.242;4.756;2023-03-15T01:16:31;18.90;40.60
69054;DHT22;56125;52.242;4.756;2023-03-15T01:21:33;18.70;40.50
69054;DHT22;56125;52.242;4.756;2023-03-15T01:26:34;18.20;40.30
69054;DHT22;56125;52.242;4.756;2023-03-15T01:31:35;18.60;40.60
69054;DHT22;56125;52.242;4.756;2023-03-15T01:36:36;18.60;40.30
69054;DHT22;56125;52.242;4.756;2023-03-15T01:41:37;18.60;40.50
69054;DHT22;56125;52.242;4.756;2023-03-15T01:46:38;18.60;40.40
69054;DHT22;56125;52.242;4.756;2023-03-15T01:51:48;18.60;40.50
69054;DHT22;56125;52.242;4.756;2023-03-15T01:57:09;18.60;40.50
69054;DHT22;56125;52.242;4.756;2023-03-15T02:02:11;18.60;40.80
69054;DHT22;56125;52.242;4.756;2023-03-15T02:07:15;17.80;40.20
69054;DHT22;56125;52.242;4.756;2023-03-15T02:12:17;18.60;40.90
69054;DHT22;56125;52.242;4.756;2023-03-15T02:17:21;18.60;40.70
69054;DHT22;56125;52.242;4.756;2023-03-15T02:27:46;18.50;40.70
69054;DHT22;56125;52.242;4.756;2023-03-15T02:32:48;18.50;40.80
69054;DHT22;56125;52.242;4.756;2023-03-15T02:37:49;18.50;40.60
69054;DHT22;56125;52.242;4.756;2023-03-15T02:42:52;18.60;40.70
69054;DHT22;56125;52.242;4.756;2023-03-15T02:47:55;19.60;41.20
69054;DHT22;56125;52.242;4.756;2023-03-15T02:52:56;18.50;40.50
69054;DHT22;56125;52.242;4.756;2023-03-15T02:57:59;18.50;40.60
69054;DHT22;56125;52.242;4.756;2023-03-15T03:03:00;18.50;40.50
69054;DHT22;56125;52.242;4.756;2023-03-15T03:08:01;18.50;40.60
69054;DHT22;56125;52.242;4.756;2023-03-15T03:13:02;18.50;40.50
69054;DHT22;56125;52.242;4.756;2023-03-15T03:18:03;18.50;40.50
69054;DHT22;56125;52.242;4.756;2023-03-15T03:23:04;18.50;40.40
69054;DHT22;56125;52.242;4.756;2023-03-15T03:28:06;18.50;40.40
69054;DHT22;56125;52.242;4.756;2023-03-15T03:33:07;18.50;40.30
69054;DHT22;56125;52.242;4.756;2023-03-15T03:38:09;18.50;40.40
69054;DHT22;56125;52.242;4.756;2023-03-15T03:43:11;18.40;40.10
69054;DHT22;56125;52.242;4.756;2023-03-15T03:48:12;18.40;40.20
69054;DHT22;56125;52.242;4.756;2023-03-15T03:53:13;18.40;40.10
69054;DHT22;56125;52.242;4.756;2023-03-15T03:58:14;18.40;40.00
69054;DHT22;56125;52.242;4.756;2023-03-15T04:03:15;18.40;40.00
69054;DHT22;56125;52.242;4.756;2023-03-15T04:08:16;18.40;39.90
69054;DHT22;56125;52.242;4.756;2023-03-15T04:13:17;18.40;39.80
69054;DHT22;56125;52.242;4.756;2023-03-15T04:18:18;18.40;39.80
69054;DHT22;56125;52.242;4.756;2023-03-15T04:23:20;18.40;39.80
69054;DHT22;56125;52.242;4.756;2023-03-15T04:28:22;18.40;39.80
69054;DHT22;56125;52.242;4.756;2023-03-15T04:33:27;18.40;39.70
69054;DHT22;56125;52.242;4.756;2023-03-15T04:38:28;18.40;39.70
69054;DHT22;56125;52.242;4.756;2023-03-15T04:43:32;18.40;39.50
69054;DHT22;56125;52.242;4.756;2023-03-15T04:48:33;18.60;39.80
69054;DHT22;56125;52.242;4.756;2023-03-15T04:53:34;18.40;39.70
69054;DHT22;56125;52.242;4.756;2023-03-15T04:58:35;18.40;39.60
69054;DHT22;56125;52.242;4.756;2023-03-15T05:03:36;18.40;39.50
69054;DHT22;56125;52.242;4.756;2023-03-15T05:08:37;18.40;39.70
69054;DHT22;56125;52.242;4.756;2023-03-15T05:13:38;18.40;39.40
69054;DHT22;56125;52.242;4.756;2023-03-15T05:18:39;18.40;39.70
69054;DHT22;56125;52.242;4.756;2023-03-15T05:23:40;18.40;40.50
69054;DHT22;56125;52.242;4.756;2023-03-15T05:28:42;18.40;39.70
69054;DHT22;56125;52.242;4.756;2023-03-15T05:33:45;18.40;39.50
69054;DHT22;56125;52.242;4.756;2023-03-15T05:38:48;18.40;39.40
69054;DHT22;56125;52.242;4.756;2023-03-15T05:43:50;18.40;39.30
69054;DHT22;56125;52.242;4.756;2023-03-15T05:48:51;18.80;39.80
69054;DHT22;56125;52.242;4.756;2023-03-15T05:53:53;18.40;39.40
69054;DHT22;56125;52.242;4.756;2023-03-15T05:58:54;18.30;39.40
69054;DHT22;56125;52.242;4.756;2023-03-15T06:03:55;18.40;40.00
69054;DHT22;56125;52.242;4.756;2023-03-15T06:08:56;18.50;40.20
69054;DHT22;56125;52.242;4.756;2023-03-15T06:13:57;18.40;40.20
69054;DHT22;56125;52.242;4.756;2023-03-15T06:18:58;18.40;40.20
69054;DHT22;56125;52.242;4.756;2023-03-15T06:23:59;18.50;40.20
69054;DHT22;56125;52.242;4.756;2023-03-15T06:29:00;18.40;39.90
69054;DHT22;56125;52.242;4.756;2023-03-15T06:34:01;18.40;39.80
69054;DHT22;56125;52.242;4.756;2023-03-15T06:39:02;18.40;40.30
69054;DHT22;56125;52.242;4.756;2023-03-15T06:44:05;18.40;39.70
69054;DHT22;56125;52.242;4.756;2023-03-15T06:49:06;18.40;39.50
69054;DHT22;56125;52.242;4.756;2023-03-15T06:54:07;18.40;39.50
69054;DHT22;56125;52.242;4.756;2023-03-15T06:59:08;18.50;39.60
69054;DHT22;56125;52.242;4.756;2023-03-15T07:04:09;18.40;39.50
69054;DHT22;56125;52.242;4.756;2023-03-15T07:09:10;18.40;39.60
69054;DHT22;56125;52.242;4.756;2023-03-15T07:14:11;18.50;39.50
69054;DHT22;56125;52.242;4.756;2023-03-15T07:19:12;18.50;39.30
69054;DHT22;56125;52.242;4.756;2023-03-15T07:24:13;18.50;39.40
69054;DHT22;56125;52.242;4.756;2023-03-15T07:29:15;18.50;39.30
69054;DHT22;56125;52.242;4.756;2023-03-15T07:34:16;18.50;39.10
69054;DHT22;56125;52.242;4.756;2023-03-15T07:39:17;18.50;39.20
69054;DHT22;56125;52.242;4.756;2023-03-15T07:44:18;18.60;39.00
69054;DHT22;56125;52.242;4.756;2023-03-15T07:49:19;18.60;39.10
69054;DHT22;56125;52.242;4.756;2023-03-15T07:54:20;18.30;38.60
69054;DHT22;56125;52.242;4.756;2023-03-15T07:59:21;18.60;38.90
69054;DHT22;56125;52.242;4.756;2023-03-15T08:04:22;18.60;38.80
69054;DHT22;56125;52.242;4.756;2023-03-15T08:09:23;18.60;38.80
69054;DHT22;56125;52.242;4.756;2023-03-15T08:14:24;19.10;39.00
69054;DHT22;56125;52.242;4.756;2023-03-15T08:19:25;18.60;39.00
69054;DHT22;56125;52.242;4.756;2023-03-15T08:24:26;18.60;38.70
69054;DHT22;56125;52.242;4.756;2023-03-15T08:29:28;18.60;38.70
69054;DHT22;56125;52.242;4.756;2023-03-15T08:34:29;18.60;38.80
69054;DHT22;56125;52.242;4.756;2023-03-15T08:39:32;18.50;38.70
69054;DHT22;56125;52.242;4.756;2023-03-15T08:44:36;18.60;38.80
69054;DHT22;56125;52.242;4.756;2023-03-15T08:49:37;18.50;39.10
69054;DHT22;56125;52.242;4.756;2023-03-15T08:54:38;18.60;38.90
69054;DHT22;56125;52.242;4.756;2023-03-15T08:59:40;18.20;38.80
69054;DHT22;56125;52.242;4.756;2023-03-15T09:04:41;19.20;39.30
69054;DHT22;56125;52.242;4.756;2023-03-15T09:09:42;18.60;39.00
69054;DHT22;56125;52.242;4.756;2023-03-15T09:14:47;18.50;38.70
69054;DHT22;56125;52.242;4.756;2023-03-15T09:19:48;18.50;38.80
69054;DHT22;56125;52.242;4.756;2023-03-15T09:24:50;18.60;38.80
69054;DHT22;56125;52.242;4.756;2023-03-15T09:29:52;18.60;38.80
69054;DHT22;56125;52.242;4.756;2023-03-15T09:34:53;18.50;38.70
69054;DHT22;56125;52.242;4.756;2023-03-15T09:39:54;18.50;38.60
69054;DHT22;56125;52.242;4.756;2023-03-15T09:45:13;18.50;38.40
69054;DHT22;56125;52.242;4.756;2023-03-15T09:50:24;18.50;38.70
69054;DHT22;56125;52.242;4.756;2023-03-15T09:55:26;18.50;38.40
69054;DHT22;56125;52.242;4.756;2023-03-15T10:00:43;18.50;38.60
69054;DHT22;56125;52.242;4.756;2023-03-15T10:05:53;18.50;38.40
69054;DHT22;56125;52.242;4.756;2023-03-15T10:16:40;18.40;38.20
69054;DHT22;56125;52.242;4.756;2023-03-15T10:27:08;18.40;37.80
69054;DHT22;56125;52.242;4.756;2023-03-15T10:32:16;19.20;38.20
69054;DHT22;56125;52.242;4.756;2023-03-15T10:37:21;18.40;37.70
69054;DHT22;56125;52.242;4.756;2023-03-15T10:42:25;18.40;37.40
69054;DHT22;56125;52.242;4.756;2023-03-15T10:47:26;18.40;37.60
69054;DHT22;56125;52.242;4.756;2023-03-15T10:52:32;18.40;37.40
69054;DHT22;56125;52.242;4.756;2023-03-15T10:57:39;18.40;37.20
69054;DHT22;56125;52.242;4.756;2023-03-15T11:02:48;18.40;37.30
69054;DHT22;56125;52.242;4.756;2023-03-15T11:07:54;18.40;37.10
69054;DHT22;56125;52.242;4.756;2023-03-15T11:13:12;18.40;37.40
69054;DHT22;56125;52.242;4.756;2023-03-15T11:18:27;18.40;37.00
69054;DHT22;56125;52.242;4.756;2023-03-15T11:23:36;18.40;37.00
69054;DHT22;56125;52.242;4.756;2023-03-15T11:28:41;18.40;36.90
69054;DHT22;56125;52.242;4.756;2023-03-15T11:34:07;18.40;36.80
69054;DHT22;56125;52.242;4.756;2023-03-15T11:39:13;18.40;36.80
69054;DHT22;56125;52.242;4.756;2023-03-15T11:44:36;18.40;36.80
69054;DHT22;56125;52.242;4.756;2023-03-15T11:49:48;18.40;36.60
69054;DHT22;56125;52.242;4.756;2023-03-15T11:54:53;18.40;36.50
69054;DHT22;56125;52.242;4.756;2023-03-15T11:59:56;18.40;36.90
69054;DHT22;56125;52.242;4.756;2023-03-15T12:04:57;18.40;36.80
69054;DHT22;56125;52.242;4.756;2023-03-15T12:20:43;17.80;35.80
69054;DHT22;56125;52.242;4.756;2023-03-15T12:31:08;18.40;36.40
69054;DHT22;56125;52.242;4.756;2023-03-15T12:41:39;18.40;36.30
69054;DHT22;56125;52.242;4.756;2023-03-15T12:51:53;18.40;36.10
69054;DHT22;56125;52.242;4.756;2023-03-15T12:57:03;18.40;36.20
69054;DHT22;56125;52.242;4.756;2023-03-15T13:02:27;18.40;35.80
69054;DHT22;56125;52.242;4.756;2023-03-15T13:07:53;18.40;35.80
69054;DHT22;56125;52.242;4.756;2023-03-15T13:18:28;18.40;36.10
69054;DHT22;56125;52.242;4.756;2023-03-15T13:23:34;18.40;36.10
69054;DHT22;56125;52.242;4.756;2023-03-15T13:28:38;19.40;36.20
69054;DHT22;56125;52.242;4.756;2023-03-15T13:33:39;18.40;35.70
69054;DHT22;56125;52.242;4.756;2023-03-15T13:38:44;18.40;35.90
69054;DHT22;56125;52.242;4.756;2023-03-15T13:43:46;18.40;36.00
69054;DHT22;56125;52.242;4.756;2023-03-15T13:48:49;18.40;36.00
69054;DHT22;56125;52.242;4.756;2023-03-15T13:53:59;18.10;35.90
69054;DHT22;56125;52.242;4.756;2023-03-15T13:59:02;18.40;35.80
69054;DHT22;56125;52.242;4.756;2023-03-15T14:04:08;18.20;35.70
69054;DHT22;56125;52.242;4.756;2023-03-15T14:09:18;18.40;35.80
69054;DHT22;56125;52.242;4.756;2023-03-15T14:14:23;18.40;35.70
69054;DHT22;56125;52.242;4.756;2023-03-15T14:19:28;18.30;35.70
69054;DHT22;56125;52.242;4.756;2023-03-15T14:24:38;18.40;35.40
69054;DHT22;56125;52.242;4.756;2023-03-15T14:29:46;18.40;35.70
69054;DHT22;56125;52.242;4.756;2023-03-15T14:34:48;18.40;35.30
69054;DHT22;56125;52.242;4.756;2023-03-15T14:39:49;18.40;35.70
69054;DHT22;56125;52.242;4.756;2023-03-15T14:44:50;18.30;35.20
69054;DHT22;56125;52.242;4.756;2023-03-15T14:49:51;18.30;35.50
69054;DHT22;56125;52.242;4.756;2023-03-15T14:54:52;18.30;35.60
69054;DHT22;56125;52.242;4.756;2023-03-15T14:59:53;18.30;35.40
69054;DHT22;56125;52.242;4.756;2023-03-15T15:04:54;18.30;35.50
69054;DHT22;56125;52.242;4.756;2023-03-15T15:09:56;18.30;35.30
69054;DHT22;56125;52.242;4.756;2023-03-15T15:14:57;18.30;35.10
69054;DHT22;56125;52.242;4.756;2023-03-15T15:19:58;18.30;35.30
69054;DHT22;56125;52.242;4.756;2023-03-15T15:24:59;18.40;35.00
69054;DHT22;56125;52.242;4.756;2023-03-15T15:30:00;18.30;35.30
69054;DHT22;56125;52.242;4.756;2023-03-15T15:35:01;18.30;34.90
69054;DHT22;56125;52.242;4.756;2023-03-15T15:40:03;18.30;34.90
69054;DHT22;56125;52.242;4.756;2023-03-15T15:45:11;18.30;34.80
69054;DHT22;56125;52.242;4.756;2023-03-15T15:50:15;18.30;34.60
69054;DHT22;56125;52.242;4.756;2023-03-15T15:55:19;18.30;35.20
69054;DHT22;56125;52.242;4.756;2023-03-15T16:00:23;17.70;34.50
69054;DHT22;56125;52.242;4.756;2023-03-15T16:05:26;18.30;34.90
69054;DHT22;56125;52.242;4.756;2023-03-15T16:10:29;18.40;35.10
69054;DHT22;56125;52.242;4.756;2023-03-15T16:15:30;18.80;34.90
69054;DHT22;56125;52.242;4.756;2023-03-15T16:20:31;18.20;35.00
69054;DHT22;56125;52.242;4.756;2023-03-15T16:25:34;18.20;35.00
69054;DHT22;56125;52.242;4.756;2023-03-15T16:30:35;18.60;34.90
69054;DHT22;56125;52.242;4.756;2023-03-15T16:35:36;18.30;35.20
69054;DHT22;56125;52.242;4.756;2023-03-15T16:40:40;18.20;34.90
69054;DHT22;56125;52.242;4.756;2023-03-15T16:45:42;18.20;34.80
69054;DHT22;56125;52.242;4.756;2023-03-15T16:50:43;18.20;35.00
69054;DHT22;56125;52.242;4.756;2023-03-15T16:55:44;18.20;35.60
69054;DHT22;56125;52.242;4.756;2023-03-15T17:00:45;18.20;35.40
69054;DHT22;56125;52.242;4.756;2023-03-15T17:05:47;18.20;35.10
69054;DHT22;56125;52.242;4.756;2023-03-15T17:10:49;18.20;35.00
69054;DHT22;56125;52.242;4.756;2023-03-15T17:15:50;18.20;35.10
69054;DHT22;56125;52.242;4.756;2023-03-15T17:20:51;18.20;35.10
69054;DHT22;56125;52.242;4.756;2023-03-15T17:25:52;18.10;35.20
69054;DHT22;56125;52.242;4.756;2023-03-15T17:30:53;18.10;35.00
69054;DHT22;56125;52.242;4.756;2023-03-15T17:35:54;18.10;35.10
69054;DHT22;56125;52.242;4.756;2023-03-15T17:40:57;18.10;35.20
69054;DHT22;56125;52.242;4.756;2023-03-15T17:45:58;18.10;35.10
69054;DHT22;56125;52.242;4.756;2023-03-15T17:50:59;18.10;35.50
69054;DHT22;56125;52.242;4.756;2023-03-15T17:56:00;18.10;35.30
69054;DHT22;56125;52.242;4.756;2023-03-15T18:01:02;17.80;35.30
69054;DHT22;56125;52.242;4.756;2023-03-15T18:06:04;18.10;35.20
69054;DHT22;56125;52.242;4.756;2023-03-15T18:11:14;18.10;35.40
69054;DHT22;56125;52.242;4.756;2023-03-15T18:16:16;18.10;35.50
69054;DHT22;56125;52.242;4.756;2023-03-15T18:21:22;18.10;35.50
69054;DHT22;56125;52.242;4.756;2023-03-15T18:26:24;18.10;35.00
69054;DHT22;56125;52.242;4.756;2023-03-15T18:31:25;18.10;35.70
69054;DHT22;56125;52.242;4.756;2023-03-15T18:36:26;18.10;35.90
69054;DHT22;56125;52.242;4.756;2023-03-15T18:41:27;18.10;35.90
69054;DHT22;56125;52.242;4.756;2023-03-15T18:46:32;18.00;36.00
69054;DHT22;56125;52.242;4.756;2023-03-15T18:51:40;18.00;36.20
69054;DHT22;56125;52.242;4.756;2023-03-15T18:56:42;18.00;36.30
69054;DHT22;56125;52.242;4.756;2023-03-15T19:01:43;18.00;36.40
69054;DHT22;56125;52.242;4.756;2023-03-15T19:06:44;18.00;36.40
69054;DHT22;56125;52.242;4.756;2023-03-15T19:11:45;18.00;36.50
69054;DHT22;56125;52.242;4.756;2023-03-15T19:16:46;18.00;36.60
69054;DHT22;56125;52.242;4.756;2023-03-15T19:21:47;18.10;36.70
69054;DHT22;56125;52.242;4.756;2023-03-15T19:26:48;18.00;36.80
69054;DHT22;56125;52.242;4.756;2023-03-15T19:31:49;18.00;36.90
69054;DHT22;56125;52.242;4.756;2023-03-15T19:36:50;18.00;37.00
69054;DHT22;56125;52.242;4.756;2023-03-15T19:41:52;18.00;37.00
69054;DHT22;56125;52.242;4.756;2023-03-15T19:46:53;17.70;36.90
69054;DHT22;56125;52.242;4.756;2023-03-15T19:51:54;18.00;37.00
69054;DHT22;56125;52.242;4.756;2023-03-15T19:56:55;18.00;37.10
69054;DHT22;56125;52.242;4.756;2023-03-15T20:01:58;18.00;37.20
69054;DHT22;56125;52.242;4.756;2023-03-15T20:06:59;18.00;37.00
69054;DHT22;56125;52.242;4.756;2023-03-15T20:12:00;17.90;37.10
69054;DHT22;56125;52.242;4.756;2023-03-15T20:17:02;17.90;37.10
69054;DHT22;56125;52.242;4.756;2023-03-15T20:22:03;17.90;37.10
69054;DHT22;56125;52.242;4.756;2023-03-15T20:27:04;18.00;37.00
69054;DHT22;56125;52.242;4.756;2023-03-15T20:32:05;18.00;37.20
69054;DHT22;56125;52.242;4.756;2023-03-15T20:37:06;17.90;37.10
69054;DHT22;56125;52.242;4.756;2023-03-15T20:42:07;17.90;37.00
69054;DHT22;56125;52.242;4.756;2023-03-15T20:47:08;17.90;37.20
69054;DHT22;56125;52.242;4.756;2023-03-15T20:52:10;17.90;37.10
69054;DHT22;56125;52.242;4.756;2023-03-15T20:57:11;17.90;38.20
69054;DHT22;56125;52.242;4.756;2023-03-15T21:02:12;17.90;37.20
69054;DHT22;56125;52.242;4.756;2023-03-15T21:07:13;17.90;37.20
69054;DHT22;56125;52.242;4.756;2023-03-15T21:12:14;17.90;37.10
69054;DHT22;56125;52.242;4.756;2023-03-15T21:17:15;17.90;37.10
69054;DHT22;56125;52.242;4.756;2023-03-15T21:22:16;17.90;37.10
69054;DHT22;56125;52.242;4.756;2023-03-15T21:27:18;17.90;37.40
69054;DHT22;56125;52.242;4.756;2023-03-15T21:32:19;17.90;37.10
69054;DHT22;56125;52.242;4.756;2023-03-15T21:37:20;17.80;37.60
69054;DHT22;56125;52.242;4.756;2023-03-15T21:42:21;17.90;37.20
69054;DHT22;56125;52.242;4.756;2023-03-15T21:47:23;17.80;37.20
69054;DHT22;56125;52.242;4.756;2023-03-15T21:52:24;17.80;37.10
69054;DHT22;56125;52.242;4.756;2023-03-15T21:57:26;17.80;37.10
69054;DHT22;56125;52.242;4.756;2023-03-15T22:02:27;17.80;37.20
69054;DHT22;56125;52.242;4.756;2023-03-15T22:07:28;17.80;37.20
69054;DHT22;56125;52.242;4.756;2023-03-15T22:12:29;17.80;37.10
69054;DHT22;56125;52.242;4.756;2023-03-15T22:17:30;17.80;37.20
69054;DHT22;56125;52.242;4.756;2023-03-15T22:22:31;17.90;37.20
69054;DHT22;56125;52.242;4.756;2023-03-15T22:27:32;17.80;37.20
69054;DHT22;56125;52.242;4.756;2023-03-15T22:32:33;17.90;37.20
69054;DHT22;56125;52.242;4.756;2023-03-15T22:37:34;17.80;37.30
69054;DHT22;56125;52.242;4.756;2023-03-15T22:42:35;17.80;37.40
69054;DHT22;56125;52.242;4.756;2023-03-15T22:47:36;17.80;37.80
69054;DHT22;56125;52.242;4.756;2023-03-15T22:52:37;17.80;38.20
69054;DHT22;56125;52.242;4.756;2023-03-15T22:57:38;17.80;38.60
69054;DHT22;56125;52.242;4.756;2023-03-15T23:02:40;17.80;39.00
69054;DHT22;56125;52.242;4.756;2023-03-15T23:07:42;17.80;39.10
69054;DHT22;56125;52.242;4.756;2023-03-15T23:12:43;17.80;39.20
69054;DHT22;56125;52.242;4.756;2023-03-15T23:17:44;17.80;39.10
69054;DHT22;56125;52.242;4.756;2023-03-15T23:22:46;17.80;39.20
69054;DHT22;56125;52.242;4.756;2023-03-15T23:27:48;17.80;38.60
69054;DHT22;56125;52.242;4.756;2023-03-15T23:32:49;17.80;39.30
69054;DHT22;56125;52.242;4.756;2023-03-15T23:37:57;17.80;39.20
69054;DHT22;56125;52.242;4.756;2023-03-15T23:42:58;18.20;39.40
69054;DHT22;56125;52.242;4.756;2023-03-15T23:47:59;17.80;39.70
69054;DHT22;56125;52.242;4.756;2023-03-15T23:53:02;17.80;39.00
69054;DHT22;56125;52.242;4.756;2023-03-15T23:58:03;17.80;38.90
